createdAt,value
2022-12-11T00:00:39.060Z,-2.19
2022-12-11T00:03:11.362Z,-2.14
2022-12-11T00:05:43.327Z,-2.17
2022-12-11T00:08:11.070Z,-2.15
2022-12-11T00:10:38.889Z,-2.19
2022-12-11T00:13:06.825Z,-2.24
2022-12-11T00:15:34.564Z,-2.25
2022-12-11T00:18:02.220Z,-2.21
2022-12-11T00:20:30.022Z,-2.25
2022-12-11T00:22:59.068Z,-2.17
2022-12-11T00:25:26.869Z,-2.20
2022-12-11T00:27:54.490Z,-2.20
2022-12-11T00:30:22.157Z,-2.30
2022-12-11T00:32:49.822Z,-2.38
2022-12-11T00:35:17.538Z,-2.35
2022-12-11T00:37:45.292Z,-2.38
2022-12-11T00:40:14.443Z,-2.38
2022-12-11T00:42:42.120Z,-2.38
2022-12-11T00:45:11.687Z,-2.50
2022-12-11T00:47:39.910Z,-2.49
2022-12-11T00:50:08.524Z,-2.51
2022-12-11T00:52:36.183Z,-2.51
2022-12-11T00:55:06.019Z,-2.56
2022-12-11T00:57:35.028Z,-2.53
2022-12-11T01:00:02.654Z,-2.60
2022-12-11T01:02:30.344Z,-2.58
2022-12-11T01:04:58.038Z,-2.67
2022-12-11T01:07:26.169Z,-2.65
2022-12-11T01:10:11.385Z,-2.69
2022-12-11T01:12:40.508Z,-2.65
2022-12-11T01:15:09.192Z,-2.65
2022-12-11T01:17:37.068Z,-2.76
2022-12-11T01:20:05.329Z,-2.68
2022-12-11T01:22:33.295Z,-2.69
2022-12-11T01:25:00.965Z,-2.63
2022-12-11T01:27:28.607Z,-2.60
2022-12-11T01:29:57.838Z,-2.58
2022-12-11T01:32:25.487Z,-2.57
2022-12-11T01:34:53.150Z,-2.54
2022-12-11T01:37:21.275Z,-2.46
2022-12-11T01:39:48.929Z,-2.42
2022-12-11T01:42:18.909Z,-2.47
2022-12-11T01:45:19.308Z,-2.47
2022-12-11T01:47:48.645Z,-2.39
2022-12-11T01:50:16.410Z,-2.32
2022-12-11T01:52:44.652Z,-2.37
2022-12-11T01:55:12.815Z,-2.28
2022-12-11T01:57:42.431Z,-2.21
2022-12-11T02:00:11.801Z,-2.21
2022-12-11T02:02:39.547Z,-2.20
2022-12-11T02:05:09.905Z,-2.15
2022-12-11T02:07:40.393Z,-2.34
2022-12-11T02:10:09.883Z,-2.32
2022-12-11T02:12:42.716Z,-2.33
2022-12-11T02:15:14.126Z,-2.36
2022-12-11T02:17:44.537Z,-2.30
2022-12-11T02:20:18.476Z,-2.19
2022-12-11T02:23:22.903Z,-2.34
2022-12-11T02:25:55.360Z,-2.35
2022-12-11T02:28:28.580Z,-2.44
2022-12-11T02:30:59.816Z,-2.38
2022-12-11T02:33:34.453Z,-2.27
2022-12-11T02:36:03.292Z,-2.18
2022-12-11T02:38:33.379Z,-2.15
2022-12-11T02:41:01.980Z,-2.08
2022-12-11T02:43:32.143Z,-2.03
2022-12-11T02:46:00.685Z,-2.01
2022-12-11T02:48:28.480Z,-2.03
2022-12-11T02:50:58.050Z,-2.06
2022-12-11T02:53:29.272Z,-2.11
2022-12-11T02:56:01.250Z,-2.10
2022-12-11T02:58:29.436Z,-2.05
2022-12-11T03:00:58.508Z,-2.11
2022-12-11T03:03:26.433Z,-2.10
2022-12-11T03:05:54.446Z,-2.09
2022-12-11T03:08:22.246Z,-2.16
2022-12-11T03:10:50.103Z,-2.12
2022-12-11T03:13:20.502Z,-2.17
2022-12-11T03:15:57.430Z,-2.17
2022-12-11T03:18:32.453Z,-2.16
2022-12-11T03:21:05.282Z,-2.16
2022-12-11T03:23:35.645Z,-2.19
2022-12-11T03:26:06.000Z,-2.17
2022-12-11T03:28:40.495Z,-2.14
2022-12-11T03:31:10.931Z,-2.13
2022-12-11T03:33:42.066Z,-2.10
2022-12-11T03:36:12.223Z,-2.08
2022-12-11T03:38:43.336Z,-2.04
2022-12-11T03:41:11.815Z,-2.16
2022-12-11T03:43:40.096Z,-2.17
2022-12-11T03:46:09.220Z,-2.27
2022-12-11T03:48:41.444Z,-2.19
2022-12-11T03:51:09.830Z,-2.18
2022-12-11T03:53:38.067Z,-2.28
2022-12-11T03:56:07.623Z,-2.27
2022-12-11T03:58:35.381Z,-2.30
2022-12-11T04:01:03.128Z,-2.32
2022-12-11T04:03:30.870Z,-2.32
2022-12-11T04:06:00.077Z,-2.26
2022-12-11T04:08:27.907Z,-2.35
2022-12-11T04:11:09.694Z,-2.32
2022-12-11T04:13:37.413Z,-2.28
2022-12-11T04:16:04.331Z,-2.32
2022-12-11T04:18:49.528Z,-2.28
2022-12-11T04:21:39.495Z,-2.31
2022-12-11T04:24:17.354Z,-2.32
2022-12-11T04:26:45.711Z,-2.30
2022-12-11T04:29:13.564Z,-2.26
2022-12-11T04:31:41.254Z,-2.27
2022-12-11T04:34:09.280Z,-2.28
2022-12-11T04:36:38.720Z,-2.39
2022-12-11T04:39:06.967Z,-2.48
2022-12-11T04:41:35.099Z,-2.50
2022-12-11T04:44:02.902Z,-2.50
2022-12-11T04:46:30.731Z,-2.49
2022-12-11T04:49:00.248Z,-2.50
2022-12-11T04:51:28.610Z,-2.52
2022-12-11T04:53:59.002Z,-2.47
2022-12-11T04:56:26.684Z,-2.42
2022-12-11T04:58:54.320Z,-2.53
2022-12-11T05:01:23.322Z,-2.66
2022-12-11T05:03:51.712Z,-2.60
2022-12-11T05:06:19.388Z,-2.62
2022-12-11T05:08:47.041Z,-2.55
2022-12-11T05:11:16.576Z,-2.50
2022-12-11T05:13:45.415Z,-2.45
2022-12-11T05:16:15.750Z,-2.52
2022-12-11T05:18:43.777Z,-2.53
2022-12-11T05:21:12.616Z,-2.51
2022-12-11T05:23:40.288Z,-2.44
2022-12-11T05:26:09.816Z,-2.40
2022-12-11T05:28:40.300Z,-2.33
2022-12-11T05:31:09.910Z,-2.29
2022-12-11T05:33:37.555Z,-2.27
2022-12-11T05:36:05.654Z,-2.30
2022-12-11T05:38:33.382Z,-2.30
2022-12-11T05:41:02.404Z,-2.28
2022-12-11T05:43:31.750Z,-2.26
2022-12-11T05:46:08.058Z,-2.25
2022-12-11T05:48:36.022Z,-2.25
2022-12-11T05:51:04.193Z,-2.27
2022-12-11T05:53:32.262Z,-2.24
2022-12-11T05:56:03.122Z,-2.24
2022-12-11T05:58:30.884Z,-2.24
2022-12-11T06:00:58.557Z,-2.24
2022-12-11T06:03:27.758Z,-2.22
2022-12-11T06:05:55.835Z,-2.27
2022-12-11T06:08:23.576Z,-2.32
2022-12-11T06:10:52.242Z,-2.31
2022-12-11T06:13:19.971Z,-2.33
2022-12-11T06:15:47.727Z,-2.32
2022-12-11T06:18:15.511Z,-2.30
2022-12-11T06:20:44.629Z,-2.28
2022-12-11T06:23:12.283Z,-2.32
2022-12-11T06:25:40.526Z,-2.37
2022-12-11T06:28:08.279Z,-2.34
2022-12-11T06:30:38.338Z,-2.33
2022-12-11T06:33:07.334Z,-2.32
2022-12-11T06:35:40.244Z,-2.32
2022-12-11T06:38:11.515Z,-2.34
2022-12-11T06:40:39.279Z,-2.34
2022-12-11T06:43:06.923Z,-2.40
2022-12-11T06:45:34.742Z,-2.37
2022-12-11T06:48:02.405Z,-2.34
2022-12-11T06:50:30.045Z,-2.30
2022-12-11T06:52:57.869Z,-2.33
2022-12-11T06:55:26.919Z,-2.32
2022-12-11T06:57:54.618Z,-2.33
2022-12-11T07:00:22.489Z,-2.35
2022-12-11T07:02:51.950Z,-2.36
2022-12-11T07:05:19.696Z,-2.35
2022-12-11T07:07:47.995Z,-2.32
2022-12-11T07:10:15.765Z,-2.30
2022-12-11T07:12:44.928Z,-2.31
2022-12-11T07:15:12.988Z,-2.31
2022-12-11T07:17:40.879Z,-2.29
2022-12-11T07:20:09.870Z,-2.27
2022-12-11T07:22:40.397Z,-2.27
2022-12-11T07:25:12.689Z,-2.32
2022-12-11T07:27:41.507Z,-2.36
2022-12-11T07:30:11.976Z,-2.36
2022-12-11T07:32:39.732Z,-2.38
2022-12-11T07:35:08.089Z,-2.36
2022-12-11T07:37:35.918Z,-2.41
2022-12-11T07:40:03.642Z,-2.37
2022-12-11T07:42:31.281Z,-2.34
2022-12-11T07:44:58.974Z,-2.37
2022-12-11T07:47:28.065Z,-2.38
2022-12-11T07:49:55.774Z,-2.37
2022-12-11T07:52:23.503Z,-2.36
2022-12-11T07:54:51.212Z,-2.39
2022-12-11T07:57:18.972Z,-2.48
2022-12-11T07:59:47.907Z,-2.64
2022-12-11T08:02:15.705Z,-2.66
2022-12-11T08:04:45.062Z,-2.61
2022-12-11T08:07:13.234Z,-2.61
2022-12-11T08:09:41.213Z,-2.58
2022-12-11T08:12:09.009Z,-2.61
2022-12-11T08:14:36.867Z,-2.65
2022-12-11T08:17:04.729Z,-2.66
2022-12-11T08:19:32.617Z,-2.67
2022-12-11T08:22:01.779Z,-2.72
2022-12-11T08:24:29.472Z,-2.62
2022-12-11T08:26:57.168Z,-2.75
2022-12-11T08:29:24.833Z,-2.72
2022-12-11T08:31:52.503Z,-2.85
2022-12-11T08:34:20.177Z,-2.81
2022-12-11T08:36:47.887Z,-2.66
2022-12-11T08:39:16.996Z,-2.80
2022-12-11T08:41:44.728Z,-3.02
2022-12-11T08:44:16.622Z,-3.12
2022-12-11T08:46:44.757Z,-2.99
2022-12-11T08:49:12.468Z,-2.83
2022-12-11T08:51:40.197Z,-2.73
2022-12-11T08:54:07.860Z,-2.63
2022-12-11T08:56:36.927Z,-2.61
2022-12-11T08:59:06.238Z,-2.55
2022-12-11T09:01:33.986Z,-2.56
2022-12-11T09:04:01.701Z,-2.56
2022-12-11T09:06:30.944Z,-2.57
2022-12-11T09:09:00.748Z,-2.52
2022-12-11T09:11:30.054Z,-2.45
2022-12-11T09:14:05.126Z,-2.43
2022-12-11T09:16:37.588Z,-2.31
2022-12-11T09:19:05.412Z,-2.10
2022-12-11T09:21:33.145Z,-1.94
2022-12-11T09:24:02.079Z,-1.85
2022-12-11T09:26:31.092Z,-1.78
2022-12-11T09:29:00.202Z,-1.82
2022-12-11T09:31:29.588Z,-1.90
2022-12-11T09:34:00.851Z,-1.89
2022-12-11T09:36:29.593Z,-1.88
2022-12-11T09:38:57.332Z,-1.88
2022-12-11T09:41:36.646Z,-1.90
2022-12-11T09:44:16.384Z,-1.94
2022-12-11T09:46:44.924Z,-1.89
2022-12-11T09:49:18.679Z,-1.89
2022-12-11T09:51:50.248Z,-1.88
2022-12-11T09:54:17.961Z,-1.71
2022-12-11T09:56:50.611Z,-1.56
2022-12-11T09:59:25.035Z,-1.38
2022-12-11T10:01:56.656Z,-1.28
2022-12-11T10:04:34.226Z,-1.21
2022-12-11T10:07:07.993Z,-1.14
2022-12-11T10:09:40.971Z,-1.07
2022-12-11T10:12:20.144Z,-1.07
2022-12-11T10:15:00.541Z,-1.18
2022-12-11T10:17:29.825Z,-1.18
2022-12-11T10:19:59.304Z,-1.15
2022-12-11T10:22:29.328Z,-1.16
2022-12-11T10:25:14.254Z,-1.13
2022-12-11T10:27:43.467Z,-1.18
2022-12-11T10:30:18.166Z,-1.60
2022-12-11T10:32:52.135Z,-1.61
2022-12-11T10:35:26.973Z,-1.44
2022-12-11T10:37:57.192Z,-1.46
2022-12-11T10:40:25.783Z,-1.47
2022-12-11T10:42:54.275Z,-1.55
2022-12-11T10:45:23.370Z,-1.39
2022-12-11T10:47:51.024Z,-1.18
2022-12-11T10:50:26.342Z,-1.24
2022-12-11T10:52:54.349Z,-1.14
2022-12-11T10:55:23.857Z,-0.99
2022-12-11T10:58:00.888Z,-0.98
2022-12-11T11:00:37.740Z,-0.77
2022-12-11T11:03:07.181Z,-0.67
2022-12-11T11:05:37.120Z,-0.43
2022-12-11T11:08:12.584Z,-0.21
2022-12-11T11:10:51.666Z,-0.15
2022-12-11T11:13:37.304Z,-0.58
2022-12-11T11:16:23.783Z,-0.43
2022-12-11T11:19:02.733Z,-0.43
2022-12-11T11:22:02.718Z,-0.65
2022-12-11T11:24:35.021Z,-0.85
2022-12-11T11:27:22.234Z,-1.33
2022-12-11T11:29:58.146Z,-1.73
2022-12-11T11:32:32.483Z,-1.83
2022-12-11T11:35:12.471Z,-2.12
2022-12-11T11:37:42.017Z,-1.80
2022-12-11T11:40:18.880Z,-1.70
2022-12-11T11:43:01.458Z,-1.68
2022-12-11T11:45:33.392Z,-1.42
2022-12-11T11:48:11.677Z,-1.33
2022-12-11T11:51:10.849Z,-1.18
2022-12-11T11:53:43.125Z,-1.15
2022-12-11T11:56:28.368Z,-1.07
2022-12-11T11:59:02.624Z,-0.98
2022-12-11T12:01:35.348Z,-1.23
2022-12-11T12:04:04.500Z,-1.88
2022-12-11T12:06:52.098Z,-1.75
2022-12-11T12:09:32.294Z,-1.94
2022-12-11T12:12:22.823Z,-1.93
2022-12-11T12:15:02.971Z,-1.82
2022-12-11T12:17:38.097Z,-1.97
2022-12-11T12:20:15.209Z,-1.89
2022-12-11T12:22:58.795Z,-1.72
2022-12-11T12:25:33.206Z,-1.61
2022-12-11T12:28:09.809Z,-1.53
2022-12-11T12:30:43.900Z,-1.45
2022-12-11T12:33:26.287Z,-1.28
2022-12-11T12:36:07.049Z,-1.23
2022-12-11T12:38:42.776Z,-1.42
2022-12-11T12:41:23.736Z,-1.41
2022-12-11T12:44:04.360Z,-1.51
2022-12-11T12:46:53.256Z,-1.46
2022-12-11T12:49:37.137Z,-1.30
2022-12-11T12:52:15.616Z,-1.27
2022-12-11T12:55:06.789Z,-1.17
2022-12-11T12:57:42.153Z,-1.44
2022-12-11T13:00:14.720Z,-1.61
2022-12-11T13:02:51.409Z,-1.59
2022-12-11T13:05:23.750Z,-1.71
2022-12-11T13:08:45.201Z,-1.55
2022-12-11T13:11:10.609Z,-1.53
2022-12-11T13:14:07.652Z,-1.40
2022-12-11T13:25:11.841Z,-1.05
2022-12-11T13:27:51.463Z,-1.15
2022-12-11T13:30:57.378Z,-1.10
2022-12-11T13:33:37.284Z,-1.18
2022-12-11T13:36:27.911Z,-1.27
2022-12-11T13:38:56.967Z,-1.30
2022-12-11T13:41:25.135Z,-1.32
2022-12-11T13:43:53.552Z,-1.31
2022-12-11T13:46:26.281Z,-1.60
2022-12-11T13:48:57.111Z,-1.64
2022-12-11T13:51:26.400Z,-1.60
2022-12-11T13:54:08.565Z,-1.75
2022-12-11T13:56:37.436Z,-1.67
2022-12-11T13:59:05.121Z,-1.52
2022-12-11T14:01:35.224Z,-1.41
2022-12-11T14:04:05.390Z,-1.36
2022-12-11T14:06:34.720Z,-1.25
2022-12-11T14:09:04.587Z,-1.17
2022-12-11T14:11:35.260Z,-1.19
2022-12-11T14:14:04.800Z,-1.26
2022-12-11T14:16:34.353Z,-1.27
2022-12-11T14:19:09.704Z,-1.28
2022-12-11T14:21:37.856Z,-1.20
2022-12-11T14:24:06.564Z,-1.52
2022-12-11T14:26:35.500Z,-1.57
2022-12-11T14:29:03.787Z,-1.59
2022-12-11T14:31:35.020Z,-1.79
2022-12-11T14:34:06.331Z,-1.93
2022-12-11T14:36:34.687Z,-1.89
2022-12-11T14:39:04.939Z,-1.96
2022-12-11T14:41:41.548Z,-1.99
2022-12-11T14:44:12.619Z,-2.01
2022-12-11T14:46:45.146Z,-1.99
2022-12-11T14:49:19.160Z,-1.88
2022-12-11T14:51:46.925Z,-1.77
2022-12-11T14:54:20.546Z,-1.72
2022-12-11T14:56:48.519Z,-1.66
2022-12-11T14:59:25.499Z,-1.65
2022-12-11T15:02:02.374Z,-1.64
2022-12-11T15:04:32.363Z,-1.64
2022-12-11T15:07:00.844Z,-1.64
2022-12-11T15:09:30.594Z,-1.75
2022-12-11T15:12:00.879Z,-1.71
2022-12-11T15:14:29.592Z,-1.66
2022-12-11T15:16:58.401Z,-1.66
2022-12-11T15:19:30.146Z,-1.74
2022-12-11T15:22:02.963Z,-1.76
2022-12-11T15:24:35.847Z,-1.97
2022-12-11T15:27:03.527Z,-1.95
2022-12-11T15:29:36.421Z,-1.99
2022-12-11T15:32:18.488Z,-2.02
2022-12-11T15:34:50.023Z,-2.03
2022-12-11T15:37:22.591Z,-2.10
2022-12-11T15:39:50.756Z,-2.17
2022-12-11T15:42:24.372Z,-2.21
2022-12-11T15:44:52.216Z,-2.22
2022-12-11T15:47:22.747Z,-2.31
2022-12-11T15:49:55.216Z,-2.37
2022-12-11T15:52:22.855Z,-2.41
2022-12-11T15:54:50.531Z,-2.45
2022-12-11T15:57:21.689Z,-2.49
2022-12-11T15:59:50.488Z,-2.49
2022-12-11T16:02:18.280Z,-2.50
2022-12-11T16:04:45.960Z,-2.51
2022-12-11T16:07:18.330Z,-2.59
2022-12-11T16:09:46.161Z,-2.70
2022-12-11T16:12:14.351Z,-2.76
2022-12-11T16:14:42.030Z,-2.76
2022-12-11T16:17:10.560Z,-2.75
2022-12-11T16:19:38.755Z,-2.75
2022-12-11T16:22:08.608Z,-2.76
2022-12-11T16:24:38.176Z,-2.75
2022-12-11T16:27:06.736Z,-2.75
2022-12-11T16:29:35.569Z,-2.78
2022-12-11T16:32:03.281Z,-2.81
2022-12-11T16:34:30.938Z,-2.82
2022-12-11T16:36:59.215Z,-2.85
2022-12-11T16:39:27.293Z,-2.85
2022-12-11T16:41:56.372Z,-2.85
2022-12-11T16:44:25.759Z,-2.84
2022-12-11T16:46:53.820Z,-2.91
2022-12-11T16:49:22.199Z,-3.07
2022-12-11T16:51:50.341Z,-3.01
2022-12-11T16:54:18.941Z,-2.96
2022-12-11T16:56:46.676Z,-3.02
2022-12-11T16:59:15.978Z,-3.01
2022-12-11T17:01:44.889Z,-2.94
2022-12-11T17:04:12.762Z,-2.89
2022-12-11T17:06:40.589Z,-2.85
2022-12-11T17:09:08.339Z,-2.86
2022-12-11T17:11:36.085Z,-2.88
2022-12-11T17:14:03.777Z,-2.90
2022-12-11T17:16:33.968Z,-2.96
2022-12-11T17:19:03.047Z,-2.90
2022-12-11T17:21:30.692Z,-3.07
2022-12-11T17:23:58.511Z,-3.03
2022-12-11T17:26:28.529Z,-3.00
2022-12-11T17:28:57.534Z,-2.93
2022-12-11T17:31:25.724Z,-2.87
2022-12-11T17:33:54.835Z,-2.85
2022-12-11T17:36:23.218Z,-2.80
2022-12-11T17:38:51.107Z,-2.79
2022-12-11T17:41:21.005Z,-2.75
2022-12-11T17:43:49.210Z,-2.73
2022-12-11T17:46:17.155Z,-2.71
2022-12-11T17:48:44.933Z,-2.68
2022-12-11T17:51:21.261Z,-2.64
2022-12-11T17:53:53.551Z,-2.61
2022-12-11T18:21:38.570Z,-2.55
2022-12-11T18:24:09.976Z,-2.52
2022-12-11T18:26:38.642Z,-2.58
2022-12-11T18:29:09.265Z,-2.59
2022-12-11T18:32:06.922Z,-2.64
2022-12-11T18:35:19.327Z,-2.63
2022-12-11T18:37:51.968Z,-2.61
2022-12-11T18:51:00.687Z,-2.60
2022-12-11T18:53:28.818Z,-2.58
2022-12-11T18:56:00.327Z,-2.62
2022-12-11T18:58:28.331Z,-2.63
2022-12-11T19:00:56.094Z,-2.67
2022-12-11T19:03:23.892Z,-2.72
2022-12-11T19:05:51.732Z,-2.75
2022-12-11T19:08:22.153Z,-2.77
2022-12-11T19:10:50.078Z,-2.78
2022-12-11T19:13:17.949Z,-2.76
2022-12-11T19:15:45.688Z,-2.78
2022-12-11T19:18:14.585Z,-2.77
2022-12-11T19:20:56.720Z,-2.80
2022-12-11T19:23:32.168Z,-2.81
2022-12-11T19:25:59.822Z,-2.85
2022-12-11T19:28:27.563Z,-2.89
2022-12-11T19:30:55.491Z,-2.90
2022-12-11T19:33:23.391Z,-2.89
2022-12-11T19:35:51.032Z,-2.92
2022-12-11T19:38:18.714Z,-2.93
2022-12-11T19:40:47.740Z,-2.95
2022-12-11T19:43:15.495Z,-3.01
2022-12-11T19:45:43.167Z,-3.09
2022-12-11T19:48:11.021Z,-3.13
2022-12-11T19:50:38.652Z,-3.12
2022-12-11T19:53:06.343Z,-3.15
2022-12-11T19:55:34.206Z,-3.20
2022-12-11T19:58:03.265Z,-3.22
2022-12-11T20:00:30.961Z,-3.21
2022-12-11T20:02:58.700Z,-3.22
2022-12-11T20:05:26.332Z,-3.26
2022-12-11T20:07:54.041Z,-3.30
2022-12-11T20:10:21.740Z,-3.28
2022-12-11T20:12:49.395Z,-3.27
2022-12-11T20:15:20.415Z,-3.29
2022-12-11T20:17:48.371Z,-3.30
2022-12-11T20:20:16.017Z,-3.28
2022-12-11T20:22:43.660Z,-3.27
2022-12-11T20:25:11.553Z,-3.31
2022-12-11T20:27:39.692Z,-3.30
2022-12-11T20:30:08.424Z,-3.29
2022-12-11T20:32:37.668Z,-3.26
2022-12-11T20:35:06.429Z,-3.31
2022-12-11T20:37:34.935Z,-3.26
2022-12-11T20:40:02.708Z,-3.26
2022-12-11T20:42:30.429Z,-3.21
2022-12-11T20:44:58.150Z,-3.26
2022-12-11T20:47:26.096Z,-3.22
2022-12-11T20:49:55.275Z,-3.19
2022-12-11T20:52:22.958Z,-3.27
2022-12-11T20:54:50.844Z,-3.29
2022-12-11T20:57:18.733Z,-3.31
2022-12-11T20:59:46.485Z,-3.31
2022-12-11T21:02:14.307Z,-3.28
2022-12-11T21:04:42.520Z,-3.21
2022-12-11T21:07:12.040Z,-3.16
2022-12-11T21:09:40.186Z,-3.14
2022-12-11T21:12:08.599Z,-3.18
2022-12-11T21:14:36.379Z,-3.17
2022-12-11T21:17:04.106Z,-3.14
2022-12-11T21:19:31.796Z,-3.12
2022-12-11T21:21:59.509Z,-3.09
2022-12-11T21:24:30.063Z,-3.13
2022-12-11T21:26:59.114Z,-3.09
2022-12-11T21:29:29.349Z,-3.10
2022-12-11T21:31:57.452Z,-3.08
2022-12-11T21:34:25.941Z,-3.04
2022-12-11T21:36:56.555Z,-3.04
2022-12-11T21:39:24.443Z,-3.03
2022-12-11T21:41:53.565Z,-3.05
2022-12-11T21:47:09.547Z,-3.10
2022-12-11T21:49:38.200Z,-3.11
2022-12-11T21:52:06.198Z,-3.10
2022-12-11T21:54:33.904Z,-3.13
2022-12-11T21:57:02.952Z,-3.12
2022-12-11T21:59:30.955Z,-3.12
2022-12-11T22:01:58.689Z,-3.12
2022-12-11T22:04:26.515Z,-3.12
2022-12-11T22:06:54.155Z,-3.12
2022-12-11T22:09:21.886Z,-3.12
2022-12-11T22:11:53.700Z,-3.12
2022-12-11T22:14:25.674Z,-3.14
2022-12-11T22:16:53.423Z,-3.18
2022-12-11T22:19:21.126Z,-3.20
2022-12-11T22:21:48.716Z,-3.25
2022-12-11T22:24:16.580Z,-3.25
2022-12-11T22:26:44.256Z,-3.26
2022-12-11T22:29:11.958Z,-3.30
2022-12-11T22:31:40.986Z,-3.32
2022-12-11T22:34:08.679Z,-3.35
2022-12-11T22:36:36.364Z,-3.39
2022-12-11T22:39:04.103Z,-3.43
2022-12-11T22:41:33.501Z,-3.44
2022-12-11T22:44:01.388Z,-3.46
2022-12-11T22:46:30.587Z,-3.51
2022-12-11T22:48:59.753Z,-3.50
2022-12-11T22:51:27.476Z,-3.55
2022-12-11T22:53:55.139Z,-3.54
2022-12-11T22:56:22.762Z,-3.49
2022-12-11T22:58:50.426Z,-3.46
2022-12-11T23:01:21.071Z,-3.45
2022-12-11T23:03:49.186Z,-3.45
2022-12-11T23:06:20.559Z,-3.46
2022-12-11T23:08:48.263Z,-3.49
2022-12-11T23:11:18.586Z,-3.49
2022-12-11T23:13:46.244Z,-3.47
2022-12-11T23:16:14.297Z,-3.50
2022-12-11T23:18:42.118Z,-3.57
2022-12-11T23:21:11.044Z,-3.62
2022-12-11T23:23:40.247Z,-3.62
2022-12-11T23:26:10.897Z,-3.66
2022-12-11T23:28:38.929Z,-3.64
2022-12-11T23:31:06.773Z,-3.65
2022-12-11T23:33:34.416Z,-3.61
2022-12-11T23:36:02.106Z,-3.58
2022-12-11T23:38:29.789Z,-3.56
2022-12-11T23:41:00.189Z,-3.55
2022-12-11T23:43:27.981Z,-3.56
2022-12-11T23:45:55.783Z,-3.57
2022-12-11T23:48:23.578Z,-3.62
2022-12-11T23:50:51.177Z,-3.69
2022-12-11T23:53:18.806Z,-3.69
2022-12-11T23:55:46.666Z,-3.75
2022-12-11T23:58:15.725Z,-3.85
